Terminal Aerodrome Forecast
Issued by NWS

Home | Current Version | Previous Version | Text Only | Print | Product List | Glossary On
Versions: 1 2 3 4 5 6 7 8 9 10 11 12 13 14
000
FTUS44 KOUN 291413 AAA
TAFWWR
TAF AMD
KWWR 291413Z 2914/3012 05025G30KT P6SM -TSRA BKN017 OVC025CB
      TEMPO 2914/2916 3SM -TSRA BR BKN005 OVC020CB
     FM291800 09012KT P6SM BKN010
     FM292200 33012KT P6SM BKN025
     FM300300 28016KT P6SM SCT250=

USA.gov is the U.S. government's official web portal to all federal, state and local government web resources and services.